createdAt,value
2023-01-05T00:04:14.886Z,99.90
2023-01-05T00:06:48.179Z,99.90
2023-01-05T00:09:20.408Z,99.90
2023-01-05T00:20:39.062Z,99.90
2023-01-05T00:23:07.630Z,99.90
2023-01-05T00:25:39.072Z,99.90
2023-01-05T00:28:06.663Z,99.90
2023-01-05T00:30:41.334Z,99.90
2023-01-05T00:33:10.697Z,99.90
2023-01-05T00:35:38.972Z,99.90
2023-01-05T00:38:07.637Z,99.90
2023-01-05T00:40:35.879Z,99.90
2023-01-05T00:43:02.927Z,99.90
2023-01-05T00:45:34.868Z,99.90
2023-01-05T00:48:07.251Z,99.90
2023-01-05T00:50:34.504Z,99.90
2023-01-05T00:53:01.873Z,99.90
2023-01-05T00:55:29.118Z,99.90
2023-01-05T01:05:21.943Z,99.90
2023-01-05T01:07:53.372Z,99.90
2023-01-05T01:10:20.488Z,99.90
2023-01-05T01:12:47.537Z,99.90
2023-01-05T01:15:22.037Z,99.90
2023-01-05T01:17:49.412Z,99.90
2023-01-05T01:22:44.569Z,99.90
2023-01-05T01:27:46.901Z,99.90
2023-01-05T01:30:14.176Z,99.90
2023-01-05T01:32:41.254Z,99.90
2023-01-05T01:37:36.640Z,99.90
2023-01-05T01:40:04.267Z,99.90
2023-01-05T01:42:32.102Z,99.90
2023-01-05T01:45:02.356Z,99.90
2023-01-05T01:47:37.720Z,99.90
2023-01-05T01:50:18.701Z,99.90
2023-01-05T01:52:48.051Z,99.90
2023-01-05T01:55:15.596Z,99.90
2023-01-05T01:57:45.126Z,99.90
2023-01-05T02:00:14.654Z,99.90
2023-01-05T02:02:48.315Z,99.90
2023-01-05T02:05:37.248Z,99.90
2023-01-05T02:08:42.387Z,99.90
2023-01-05T02:11:38.433Z,99.90
2023-01-05T02:14:52.471Z,99.90
2023-01-05T02:17:52.624Z,99.90
2023-01-05T02:20:44.371Z,99.90
2023-01-05T02:23:36.107Z,99.90
2023-01-05T02:26:27.917Z,99.90
2023-01-05T02:29:38.169Z,99.90
2023-01-05T02:32:10.991Z,99.90
2023-01-05T02:34:57.295Z,99.90
2023-01-05T02:37:49.173Z,99.90
2023-01-05T02:40:27.658Z,99.90
2023-01-05T02:42:56.468Z,99.90
2023-01-05T02:45:24.631Z,99.90
2023-01-05T02:47:56.595Z,99.90
2023-01-05T02:50:31.118Z,99.90
2023-01-05T02:53:07.723Z,99.90
2023-01-05T02:56:07.639Z,99.90
2023-01-05T02:58:54.181Z,99.90
2023-01-05T03:01:28.236Z,99.90
2023-01-05T03:04:04.977Z,99.90
2023-01-05T03:06:46.849Z,99.90
2023-01-05T03:09:20.019Z,99.90
2023-01-05T03:12:17.050Z,99.90
2023-01-05T03:15:06.623Z,99.90
2023-01-05T03:17:46.759Z,99.90
2023-01-05T03:20:19.024Z,99.90
2023-01-05T03:23:07.044Z,99.90
2023-01-05T03:25:59.345Z,99.90
2023-01-05T03:29:08.947Z,99.90
2023-01-05T03:32:09.527Z,99.90
2023-01-05T03:35:28.750Z,99.90
2023-01-05T03:38:33.162Z,99.90
2023-01-05T03:41:19.312Z,99.90
2023-01-05T03:44:00.404Z,99.90
2023-01-05T03:46:45.631Z,99.90
2023-01-05T03:49:34.105Z,99.90
2023-01-05T03:52:07.251Z,99.90
2023-01-05T03:57:07.692Z,99.90
2023-01-05T03:59:41.330Z,99.90
2023-01-05T04:02:12.707Z,99.90
2023-01-05T04:04:41.119Z,99.90
2023-01-05T04:07:30.473Z,99.90
2023-01-05T04:12:54.032Z,99.90
2023-01-05T04:20:22.983Z,99.90
2023-01-05T04:22:53.921Z,99.90
2023-01-05T04:25:27.722Z,99.90
2023-01-05T04:27:57.011Z,99.90
2023-01-05T04:30:29.140Z,99.90
2023-01-05T04:42:55.585Z,99.90
2023-01-05T04:45:23.690Z,99.90
2023-01-05T04:47:54.722Z,99.90
2023-01-05T04:50:48.495Z,99.90
2023-01-05T04:53:18.431Z,99.90
2023-01-05T04:55:46.148Z,99.90
2023-01-05T04:58:13.270Z,99.90
2023-01-05T05:00:41.597Z,99.90
2023-01-05T05:03:13.696Z,99.90
2023-01-05T05:05:41.032Z,99.90
2023-01-05T05:08:13.564Z,99.90
2023-01-05T05:10:40.938Z,99.90
2023-01-05T05:13:08.834Z,99.90
2023-01-05T05:15:39.140Z,99.90
2023-01-05T05:18:09.724Z,99.90
2023-01-05T05:20:42.573Z,99.90
2023-01-05T05:23:13.556Z,99.90
2023-01-05T05:28:08.329Z,99.90
2023-01-05T05:33:03.767Z,99.90
2023-01-05T05:35:30.890Z,99.90
2023-01-05T05:37:58.118Z,99.90
2023-01-05T05:40:26.370Z,99.90
2023-01-05T05:42:54.812Z,99.90
2023-01-05T05:45:21.821Z,99.90
2023-01-05T05:47:50.712Z,99.90
2023-01-05T05:50:17.925Z,99.90
2023-01-05T05:52:47.146Z,99.90
2023-01-05T05:55:14.195Z,99.90
2023-01-05T05:57:42.315Z,99.90
2023-01-05T06:00:14.995Z,99.90
2023-01-05T06:02:45.634Z,99.90
2023-01-05T06:05:12.873Z,99.90
2023-01-05T06:12:45.508Z,99.90
2023-01-05T06:20:13.356Z,99.90
2023-01-05T06:22:40.992Z,99.90
2023-01-05T06:27:36.176Z,99.90
2023-01-05T06:30:06.459Z,99.90
2023-01-05T06:40:02.763Z,99.90
2023-01-05T06:42:29.890Z,99.90
2023-01-05T06:44:57.080Z,99.90
2023-01-05T06:47:24.389Z,99.90
2023-01-05T06:57:15.590Z,99.90
2023-01-05T06:59:49.144Z,99.90
2023-01-05T07:02:20.756Z,99.90
2023-01-05T07:07:21.012Z,99.90
2023-01-05T07:09:59.573Z,99.90
2023-01-05T07:12:30.169Z,99.90
2023-01-05T07:17:33.286Z,99.90
2023-01-05T07:25:23.314Z,99.90
2023-01-05T07:37:45.292Z,99.90
2023-01-05T07:40:12.930Z,99.90
2023-01-05T07:42:42.879Z,99.90
2023-01-05T07:45:18.409Z,99.90
2023-01-05T07:50:14.969Z,99.90
2023-01-05T07:52:42.478Z,99.90
2023-01-05T07:55:12.389Z,99.90
2023-01-05T07:57:44.850Z,99.90
2023-01-05T08:02:44.652Z,99.90
2023-01-05T08:05:12.035Z,99.90
2023-01-05T08:21:00.951Z,99.90
2023-01-05T08:23:32.817Z,99.90
2023-01-05T08:26:05.466Z,99.90
2023-01-05T08:28:35.816Z,99.90
2023-01-05T08:31:05.718Z,99.90
2023-01-05T08:33:35.410Z,99.90
2023-01-05T08:36:09.081Z,99.90
2023-01-05T08:38:49.229Z,99.90
2023-01-05T08:41:51.492Z,99.90
2023-01-05T08:47:07.538Z,99.90
2023-01-05T08:49:51.444Z,99.90
2023-01-05T08:54:53.608Z,99.90
2023-01-05T09:04:56.780Z,99.90
2023-01-05T09:07:24.585Z,99.90
2023-01-05T09:09:51.771Z,99.90
2023-01-05T09:15:00.672Z,99.90
2023-01-05T09:19:56.825Z,99.90
2023-01-05T09:22:25.093Z,99.90
2023-01-05T09:24:52.082Z,99.90
2023-01-05T09:27:20.154Z,99.90
2023-01-05T09:29:47.506Z,99.90
2023-01-05T09:32:15.763Z,99.90
2023-01-05T09:37:10.655Z,99.90
2023-01-05T09:39:38.047Z,99.90
2023-01-05T09:42:10.316Z,99.90
2023-01-05T09:44:58.367Z,99.90
2023-01-05T09:47:35.550Z,99.90
2023-01-05T09:50:05.329Z,99.90
2023-01-05T09:52:38.032Z,99.90
2023-01-05T09:55:22.533Z,99.90
2023-01-05T09:57:59.673Z,99.90
2023-01-05T10:00:28.433Z,98.70
2023-01-05T10:03:03.802Z,99.10
2023-01-05T10:05:38.668Z,98.20
2023-01-05T10:08:35.942Z,95.80
2023-01-05T10:12:02.210Z,93.60
2023-01-05T10:14:46.653Z,96.20
2023-01-05T10:20:19.399Z,97.60
2023-01-05T10:23:04.650Z,99.90
2023-01-05T10:25:46.414Z,99.90
2023-01-05T10:28:39.322Z,97.70
2023-01-05T10:31:19.510Z,99.90
2023-01-05T10:34:01.639Z,99.90
2023-01-05T10:37:09.266Z,99.90
2023-01-05T10:40:15.296Z,99.90
2023-01-05T10:43:37.636Z,99.90
2023-01-05T10:46:34.971Z,99.90
2023-01-05T10:49:03.969Z,99.90
2023-01-05T10:51:37.155Z,99.90
2023-01-05T10:54:07.794Z,99.90
2023-01-05T10:56:34.894Z,99.90
2023-01-05T10:59:15.876Z,99.90
2023-01-05T11:01:49.648Z,99.90
2023-01-05T11:04:34.271Z,99.90
2023-01-05T11:07:05.679Z,99.90
2023-01-05T11:09:33.686Z,99.90
2023-01-05T11:12:03.029Z,99.90
2023-01-05T11:14:36.759Z,99.90
2023-01-05T11:17:07.563Z,99.90
2023-01-05T11:19:41.658Z,99.90
2023-01-05T11:22:38.187Z,99.90
2023-01-05T11:25:28.941Z,99.90
2023-01-05T11:28:09.983Z,99.90
2023-01-05T11:31:05.023Z,96.60
2023-01-05T11:33:36.724Z,98.70
2023-01-05T11:36:05.007Z,92.10
2023-01-05T11:38:32.528Z,92.90
2023-01-05T11:41:01.249Z,83.60
2023-01-05T11:43:32.104Z,86.00
2023-01-05T11:46:02.488Z,82.10
2023-01-05T11:48:33.429Z,83.10
2023-01-05T11:51:04.278Z,80.10
2023-01-05T11:53:34.009Z,82.20
2023-01-05T11:56:01.317Z,80.90
2023-01-05T11:58:56.861Z,79.00
2023-01-05T12:01:42.561Z,84.80
2023-01-05T12:04:28.323Z,85.80
2023-01-05T12:07:20.163Z,80.40
2023-01-05T12:10:11.150Z,82.80
2023-01-05T12:12:44.149Z,83.20
2023-01-05T12:15:33.480Z,81.10
2023-01-05T12:18:03.607Z,78.00
2023-01-05T12:20:53.904Z,82.70
2023-01-05T12:23:35.030Z,86.80
2023-01-05T12:26:29.329Z,87.30
2023-01-05T12:36:41.305Z,85.60
2023-01-05T12:40:04.703Z,88.10
2023-01-05T12:42:40.713Z,93.10
2023-01-05T12:45:32.202Z,92.50
2023-01-05T12:48:27.511Z,94.30
2023-01-05T12:51:42.761Z,96.10
2023-01-05T12:54:39.941Z,95.20
2023-01-05T12:57:23.493Z,98.50
2023-01-05T13:00:15.780Z,98.30
2023-01-05T13:02:58.550Z,99.90
2023-01-05T13:05:34.784Z,98.70
2023-01-05T13:08:25.013Z,97.10
2023-01-05T13:11:13.453Z,97.50
2023-01-05T13:13:52.240Z,98.30
2023-01-05T13:16:26.177Z,99.90
2023-01-05T13:19:20.840Z,99.90
2023-01-05T13:24:27.941Z,99.60
2023-01-05T13:26:56.899Z,99.90
2023-01-05T13:29:33.327Z,99.90
2023-01-05T13:32:25.743Z,99.90
2023-01-05T13:35:20.698Z,99.90
2023-01-05T13:38:13.416Z,99.90
2023-01-05T13:41:05.435Z,99.90
2023-01-05T13:44:07.491Z,99.90
2023-01-05T13:46:56.837Z,99.90
2023-01-05T13:50:03.261Z,99.90
2023-01-05T13:55:03.162Z,99.90
2023-01-05T13:57:38.685Z,99.90
2023-01-05T14:00:19.605Z,99.90
2023-01-05T14:03:07.740Z,99.90
2023-01-05T14:06:12.685Z,99.90
2023-01-05T14:08:59.985Z,99.90
2023-01-05T14:14:26.824Z,99.90
2023-01-05T14:16:56.323Z,99.90
2023-01-05T14:19:53.409Z,99.90
2023-01-05T14:22:42.514Z,99.90
2023-01-05T14:27:36.077Z,99.90
2023-01-05T14:29:59.889Z,99.90
2023-01-05T14:32:41.743Z,99.90
2023-01-05T14:35:19.443Z,99.90
2023-01-05T14:38:01.362Z,99.90
2023-01-05T14:43:46.268Z,99.90
2023-01-05T14:46:15.730Z,99.90
2023-01-05T14:49:05.363Z,99.90
2023-01-05T14:51:39.443Z,99.90
2023-01-05T14:54:07.223Z,99.90
2023-01-05T14:56:37.368Z,99.90
2023-01-05T14:59:12.790Z,99.90
2023-01-05T15:02:00.111Z,99.90
2023-01-05T15:04:37.290Z,99.90
2023-01-05T15:07:41.609Z,99.90
2023-01-05T15:10:37.152Z,99.90
2023-01-05T15:13:29.915Z,99.90
2023-01-05T15:16:06.010Z,99.90
2023-01-05T15:19:15.710Z,99.90
2023-01-05T15:22:12.929Z,99.90
2023-01-05T15:25:29.890Z,99.90
2023-01-05T15:28:17.738Z,99.90
2023-01-05T15:31:00.808Z,99.90
2023-01-05T15:36:03.618Z,99.90
2023-01-05T15:38:31.755Z,99.90
2023-01-05T15:41:08.248Z,99.90
2023-01-05T15:43:40.283Z,99.90
2023-01-05T15:48:45.670Z,99.90
2023-01-05T15:51:29.256Z,99.90
2023-01-05T15:54:00.102Z,99.90
2023-01-05T15:56:39.607Z,99.90
2023-01-05T15:59:31.236Z,99.90
2023-01-05T16:01:59.290Z,99.90
2023-01-05T16:04:30.651Z,99.90
2023-01-05T16:07:14.663Z,99.90
2023-01-05T16:09:47.177Z,99.90
2023-01-05T16:12:23.514Z,99.90
2023-01-05T16:15:03.913Z,99.90
2023-01-05T16:17:38.366Z,99.90
2023-01-05T16:20:27.693Z,99.90
2023-01-05T16:23:12.432Z,99.90
2023-01-05T16:25:43.679Z,99.90
2023-01-05T16:28:24.882Z,99.90
2023-01-05T16:30:59.230Z,99.90
2023-01-05T16:33:38.494Z,99.90
2023-01-05T16:36:16.412Z,99.90
2023-01-05T16:41:21.435Z,99.90
2023-01-05T16:44:00.508Z,99.90
2023-01-05T16:46:36.531Z,99.90
2023-01-05T16:49:27.163Z,99.90
2023-01-05T16:51:57.095Z,99.90
2023-01-05T16:54:39.200Z,99.90
2023-01-05T16:57:32.209Z,99.90
2023-01-05T17:00:26.782Z,99.90
2023-01-05T17:02:55.957Z,99.90
2023-01-05T17:05:29.339Z,99.90
2023-01-05T17:10:27.394Z,99.90
2023-01-05T17:13:17.068Z,99.90
2023-01-05T17:15:46.088Z,99.90
2023-01-05T17:18:24.353Z,99.90
2023-01-05T17:20:53.497Z,99.90
2023-01-05T17:23:28.170Z,99.90
2023-01-05T17:26:01.759Z,99.90
2023-01-05T17:28:32.450Z,99.90
2023-01-05T17:33:31.593Z,99.90
2023-01-05T17:38:32.768Z,99.90
2023-01-05T17:41:09.478Z,99.90
2023-01-05T17:46:21.077Z,99.90
2023-01-05T17:48:49.491Z,99.90
2023-01-05T18:04:54.994Z,99.90
2023-01-05T18:27:10.269Z,99.90
2023-01-05T18:29:38.676Z,99.90
2023-01-05T18:32:07.120Z,99.90
2023-01-05T18:47:10.128Z,99.90
2023-01-05T18:49:41.432Z,99.90
2023-01-05T18:54:40.388Z,99.90
2023-01-05T18:57:08.751Z,99.90
2023-01-05T19:04:33.604Z,99.90
2023-01-05T19:07:02.685Z,99.90
2023-01-05T19:12:06.688Z,99.90
2023-01-05T19:14:33.589Z,99.90
2023-01-05T19:17:01.002Z,99.90
2023-01-05T19:21:58.129Z,99.90
2023-01-05T19:24:26.837Z,99.90
2023-01-05T19:29:22.093Z,99.90
2023-01-05T19:34:19.729Z,99.90
2023-01-05T19:36:47.603Z,99.90
2023-01-05T19:39:17.693Z,99.90
2023-01-05T19:41:47.059Z,99.90
2023-01-05T19:44:21.344Z,99.90
2023-01-05T19:46:50.227Z,99.90
2023-01-05T19:49:21.378Z,99.90
2023-01-05T19:56:45.384Z,99.90
2023-01-05T19:59:21.875Z,99.90
2023-01-05T20:06:48.769Z,99.90
2023-01-05T20:09:19.152Z,99.90
2023-01-05T20:11:53.001Z,99.90
2023-01-05T20:14:25.117Z,99.90
2023-01-05T20:17:07.305Z,99.90
2023-01-05T20:19:36.801Z,99.90
2023-01-05T20:22:09.805Z,99.90
2023-01-05T20:24:40.566Z,99.90
2023-01-05T20:27:13.656Z,99.90
2023-01-05T20:29:44.466Z,99.90
2023-01-05T20:32:22.749Z,99.90
2023-01-05T20:34:53.125Z,99.90
2023-01-05T20:37:20.553Z,99.90
2023-01-05T20:39:47.718Z,99.90
2023-01-05T20:42:21.090Z,99.90
2023-01-05T20:44:51.436Z,99.90
2023-01-05T20:49:56.276Z,99.90
2023-01-05T20:52:24.156Z,99.90
2023-01-05T20:57:23.644Z,99.90
2023-01-05T20:59:51.473Z,99.90
2023-01-05T21:02:24.025Z,99.90
2023-01-05T21:04:53.085Z,99.90
2023-01-05T21:07:20.490Z,99.90
2023-01-05T21:12:18.091Z,99.90
2023-01-05T21:14:47.992Z,99.90
2023-01-05T21:17:15.350Z,99.90
2023-01-05T21:19:44.171Z,99.90
2023-01-05T21:27:06.091Z,99.90
2023-01-05T21:34:34.033Z,99.90
2023-01-05T21:39:30.244Z,99.90
2023-01-05T21:42:18.909Z,99.90
2023-01-05T21:47:15.698Z,99.90
2023-01-05T21:49:43.088Z,99.90
2023-01-05T22:00:34.143Z,99.90
2023-01-05T22:03:01.315Z,99.90
2023-01-05T22:05:29.253Z,99.90
2023-01-05T22:33:05.807Z,99.90
2023-01-05T22:35:32.822Z,99.90
2023-01-05T22:38:00.462Z,99.90
2023-01-05T22:40:27.566Z,99.90
2023-01-05T22:42:58.218Z,99.90
2023-01-05T22:48:07.139Z,99.90
2023-01-05T22:55:35.776Z,99.90
2023-01-05T23:00:44.554Z,99.90
2023-01-05T23:03:22.720Z,99.90
2023-01-05T23:06:08.301Z,99.90
2023-01-05T23:08:40.038Z,99.90
2023-01-05T23:11:22.933Z,99.90
2023-01-05T23:13:51.576Z,99.90
2023-01-05T23:16:22.021Z,99.90
2023-01-05T23:19:00.328Z,99.90
2023-01-05T23:21:29.939Z,99.90
2023-01-05T23:23:58.784Z,99.90
2023-01-05T23:26:27.289Z,99.90
2023-01-05T23:28:57.771Z,99.90
2023-01-05T23:31:29.430Z,99.90
2023-01-05T23:34:00.144Z,99.90
2023-01-05T23:41:31.284Z,99.90
2023-01-05T23:49:00.948Z,99.90
2023-01-05T23:51:31.666Z,99.90
2023-01-05T23:54:07.390Z,99.90
2023-01-05T23:56:34.770Z,99.90
2023-01-05T23:59:08.878Z,99.90
